Terminal Aerodrome Forecast
Issued by NWS

Home | Current Version | Previous Version | Text Only | Print | Product List | Glossary On
Versions: 1 2 3 4 5 6 7 8 9 10 11 12 13 14 15 16 17 18 19 20 21 22 23 24 25 26 27 28 29 30 31 32 33 34 35 36 37 38 39 40 41 42 43 44 45 46
000
FTAK31 PAFA 060643 AAA
TAFAOM
TAF AMD
PAOM 060643Z 0607/0706 00000KT P6SM BKN003 BKN028 BKN210
     FM061500 09018KT 2SM -SN BLSN OVC015
     FM062200 14023KT 1SM -SN BLSN BR BKN007 OVC015
     FM070200 15020G26KT 1/2SM -SN BLSN FZFG SCT004 OVC007=

USA.gov is the U.S. government's official web portal to all federal, state and local government web resources and services.